sensor_id;sensor_type;location;lat;lon;timestamp;P1;durP1;ratioP1;P2;durP2;ratioP2
17528;SDS011;8882;53.192;8.184;2023-05-07T07:01:09;11.33;;;6.77;;
17528;SDS011;8882;53.192;8.184;2023-05-07T07:03:34;13.70;;;7.30;;
17528;SDS011;8882;53.192;8.184;2023-05-07T07:06:00;9.10;;;6.20;;
17528;SDS011;8882;53.192;8.184;2023-05-07T07:08:27;10.07;;;6.27;;
17528;SDS011;8882;53.192;8.184;2023-05-07T07:10:52;9.47;;;6.30;;
17528;SDS011;8882;53.192;8.184;2023-05-07T07:13:18;10.10;;;6.57;;
17528;SDS011;8882;53.192;8.184;2023-05-07T07:15:44;10.47;;;6.27;;
17528;SDS011;8882;53.192;8.184;2023-05-07T07:18:10;10.17;;;5.93;;
17528;SDS011;8882;53.192;8.184;2023-05-07T07:20:35;9.73;;;5.93;;
17528;SDS011;8882;53.192;8.184;2023-05-07T07:23:01;7.87;;;5.97;;
17528;SDS011;8882;53.192;8.184;2023-05-07T07:25:26;9.60;;;6.13;;
17528;SDS011;8882;53.192;8.184;2023-05-07T07:27:52;10.13;;;6.10;;
17528;SDS011;8882;53.192;8.184;2023-05-07T07:30:17;10.00;;;6.17;;
17528;SDS011;8882;53.192;8.184;2023-05-07T07:32:43;6.97;;;5.27;;
17528;SDS011;8882;53.192;8.184;2023-05-07T07:35:08;9.63;;;5.77;;
17528;SDS011;8882;53.192;8.184;2023-05-07T07:37:34;9.93;;;6.47;;
17528;SDS011;8882;53.192;8.184;2023-05-07T07:39:59;8.03;;;5.67;;
17528;SDS011;8882;53.192;8.184;2023-05-07T07:42:25;8.93;;;5.67;;
17528;SDS011;8882;53.192;8.184;2023-05-07T07:44:50;9.17;;;5.63;;
17528;SDS011;8882;53.192;8.184;2023-05-07T07:47:16;7.07;;;4.67;;
17528;SDS011;8882;53.192;8.184;2023-05-07T07:49:41;6.57;;;4.87;;
17528;SDS011;8882;53.192;8.184;2023-05-07T07:52:07;7.63;;;5.30;;
17528;SDS011;8882;53.192;8.184;2023-05-07T07:54:32;9.03;;;6.20;;
17528;SDS011;8882;53.192;8.184;2023-05-07T07:56:58;8.40;;;5.77;;
17528;SDS011;8882;53.192;8.184;2023-05-07T07:59:23;6.67;;;5.00;;
17528;SDS011;8882;53.192;8.184;2023-05-07T08:01:49;7.40;;;5.40;;
17528;SDS011;8882;53.192;8.184;2023-05-07T08:04:17;7.97;;;5.40;;
17528;SDS011;8882;53.192;8.184;2023-05-07T08:06:42;7.77;;;5.50;;
17528;SDS011;8882;53.192;8.184;2023-05-07T08:09:08;6.87;;;5.10;;
17528;SDS011;8882;53.192;8.184;2023-05-07T08:11:33;7.00;;;5.40;;
17528;SDS011;8882;53.192;8.184;2023-05-07T08:13:59;8.87;;;5.87;;
17528;SDS011;8882;53.192;8.184;2023-05-07T08:16:25;8.40;;;5.13;;
17528;SDS011;8882;53.192;8.184;2023-05-07T08:18:50;10.20;;;5.30;;
17528;SDS011;8882;53.192;8.184;2023-05-07T08:21:16;8.07;;;5.37;;
17528;SDS011;8882;53.192;8.184;2023-05-07T08:23:42;10.13;;;6.17;;
17528;SDS011;8882;53.192;8.184;2023-05-07T08:26:07;8.00;;;5.77;;
17528;SDS011;8882;53.192;8.184;2023-05-07T08:28:33;6.53;;;5.10;;
17528;SDS011;8882;53.192;8.184;2023-05-07T08:30:59;8.63;;;5.83;;
17528;SDS011;8882;53.192;8.184;2023-05-07T08:33:25;8.50;;;5.60;;
17528;SDS011;8882;53.192;8.184;2023-05-07T08:35:51;7.13;;;5.70;;
17528;SDS011;8882;53.192;8.184;2023-05-07T08:38:17;7.70;;;5.27;;
17528;SDS011;8882;53.192;8.184;2023-05-07T08:40:42;6.47;;;4.83;;
17528;SDS011;8882;53.192;8.184;2023-05-07T08:43:08;6.97;;;5.00;;
17528;SDS011;8882;53.192;8.184;2023-05-07T08:45:37;8.27;;;5.37;;
17528;SDS011;8882;53.192;8.184;2023-05-07T08:48:05;8.00;;;5.63;;
17528;SDS011;8882;53.192;8.184;2023-05-07T08:50:40;8.27;;;5.73;;
17528;SDS011;8882;53.192;8.184;2023-05-07T08:53:05;7.80;;;5.77;;
17528;SDS011;8882;53.192;8.184;2023-05-07T08:55:31;8.20;;;6.00;;
17528;SDS011;8882;53.192;8.184;2023-05-07T08:57:58;8.60;;;6.30;;
17528;SDS011;8882;53.192;8.184;2023-05-07T09:00:23;7.60;;;5.43;;
17528;SDS011;8882;53.192;8.184;2023-05-07T09:02:49;8.60;;;6.60;;
17528;SDS011;8882;53.192;8.184;2023-05-07T09:05:15;8.23;;;6.43;;
17528;SDS011;8882;53.192;8.184;2023-05-07T09:07:40;8.53;;;6.27;;
17528;SDS011;8882;53.192;8.184;2023-05-07T09:10:06;7.67;;;5.60;;
17528;SDS011;8882;53.192;8.184;2023-05-07T09:12:32;6.00;;;4.90;;
17528;SDS011;8882;53.192;8.184;2023-05-07T09:15:00;9.07;;;6.03;;
17528;SDS011;8882;53.192;8.184;2023-05-07T09:17:26;8.70;;;5.47;;
17528;SDS011;8882;53.192;8.184;2023-05-07T09:19:51;8.33;;;5.83;;
17528;SDS011;8882;53.192;8.184;2023-05-07T09:22:18;6.93;;;5.70;;
17528;SDS011;8882;53.192;8.184;2023-05-07T09:24:50;7.07;;;5.10;;
17528;SDS011;8882;53.192;8.184;2023-05-07T09:27:17;7.70;;;5.87;;
17528;SDS011;8882;53.192;8.184;2023-05-07T09:29:43;6.43;;;4.83;;
17528;SDS011;8882;53.192;8.184;2023-05-07T09:32:09;7.93;;;5.10;;
17528;SDS011;8882;53.192;8.184;2023-05-07T09:34:35;7.30;;;5.13;;
17528;SDS011;8882;53.192;8.184;2023-05-07T09:37:04;8.50;;;5.80;;
17528;SDS011;8882;53.192;8.184;2023-05-07T09:42:08;6.13;;;5.07;;
17528;SDS011;8882;53.192;8.184;2023-05-07T09:44:35;7.60;;;5.00;;
17528;SDS011;8882;53.192;8.184;2023-05-07T09:47:01;7.07;;;4.97;;
17528;SDS011;8882;53.192;8.184;2023-05-07T09:49:30;7.70;;;5.50;;
17528;SDS011;8882;53.192;8.184;2023-05-07T09:52:03;6.80;;;4.67;;
17528;SDS011;8882;53.192;8.184;2023-05-07T09:54:31;6.13;;;4.77;;
17528;SDS011;8882;53.192;8.184;2023-05-07T09:56:58;5.50;;;4.17;;
17528;SDS011;8882;53.192;8.184;2023-05-07T09:59:27;6.37;;;4.40;;
17528;SDS011;8882;53.192;8.184;2023-05-07T10:01:56;5.87;;;4.23;;
17528;SDS011;8882;53.192;8.184;2023-05-07T10:04:23;5.20;;;4.27;;
17528;SDS011;8882;53.192;8.184;2023-05-07T10:06:50;5.80;;;4.90;;
17528;SDS011;8882;53.192;8.184;2023-05-07T10:09:16;6.20;;;4.43;;
17528;SDS011;8882;53.192;8.184;2023-05-07T10:11:42;7.37;;;5.00;;
17528;SDS011;8882;53.192;8.184;2023-05-07T10:14:08;4.63;;;4.17;;
17528;SDS011;8882;53.192;8.184;2023-05-07T10:16:35;6.73;;;5.00;;
17528;SDS011;8882;53.192;8.184;2023-05-07T10:19:02;6.70;;;4.50;;
17528;SDS011;8882;53.192;8.184;2023-05-07T10:21:29;6.67;;;4.17;;
17528;SDS011;8882;53.192;8.184;2023-05-07T10:23:58;5.83;;;5.00;;
17528;SDS011;8882;53.192;8.184;2023-05-07T10:26:28;5.47;;;4.33;;
17528;SDS011;8882;53.192;8.184;2023-05-07T10:28:58;5.17;;;4.40;;
17528;SDS011;8882;53.192;8.184;2023-05-07T10:31:41;5.97;;;4.67;;
17528;SDS011;8882;53.192;8.184;2023-05-07T10:34:15;4.83;;;4.43;;
17528;SDS011;8882;53.192;8.184;2023-05-07T10:36:44;6.57;;;4.20;;
17528;SDS011;8882;53.192;8.184;2023-05-07T10:39:10;6.00;;;5.30;;
17528;SDS011;8882;53.192;8.184;2023-05-07T10:41:35;6.63;;;5.30;;
17528;SDS011;8882;53.192;8.184;2023-05-07T10:44:01;8.63;;;5.07;;
17528;SDS011;8882;53.192;8.184;2023-05-07T10:46:27;6.17;;;5.10;;
17528;SDS011;8882;53.192;8.184;2023-05-07T10:51:25;7.10;;;5.53;;
17528;SDS011;8882;53.192;8.184;2023-05-07T10:54:17;7.20;;;5.33;;
17528;SDS011;8882;53.192;8.184;2023-05-07T10:56:43;6.93;;;5.10;;
17528;SDS011;8882;53.192;8.184;2023-05-07T11:01:55;6.87;;;5.23;;
17528;SDS011;8882;53.192;8.184;2023-05-07T11:04:22;6.87;;;5.20;;
17528;SDS011;8882;53.192;8.184;2023-05-07T11:15:01;8.07;;;5.50;;
17528;SDS011;8882;53.192;8.184;2023-05-07T11:17:34;6.07;;;4.90;;
17528;SDS011;8882;53.192;8.184;2023-05-07T11:20:17;7.20;;;4.93;;
17528;SDS011;8882;53.192;8.184;2023-05-07T11:22:43;7.10;;;5.60;;
17528;SDS011;8882;53.192;8.184;2023-05-07T11:25:08;5.97;;;5.27;;
17528;SDS011;8882;53.192;8.184;2023-05-07T11:27:34;6.80;;;5.40;;
17528;SDS011;8882;53.192;8.184;2023-05-07T11:30:00;6.50;;;5.17;;
17528;SDS011;8882;53.192;8.184;2023-05-07T11:32:30;6.20;;;4.97;;
17528;SDS011;8882;53.192;8.184;2023-05-07T11:34:57;7.20;;;5.50;;
17528;SDS011;8882;53.192;8.184;2023-05-07T11:37:24;7.50;;;6.10;;
17528;SDS011;8882;53.192;8.184;2023-05-07T11:39:52;7.40;;;5.53;;
17528;SDS011;8882;53.192;8.184;2023-05-07T11:42:32;7.23;;;5.40;;
17528;SDS011;8882;53.192;8.184;2023-05-07T11:44:59;8.17;;;5.80;;
17528;SDS011;8882;53.192;8.184;2023-05-07T11:47:25;8.07;;;5.87;;
17528;SDS011;8882;53.192;8.184;2023-05-07T11:49:52;6.90;;;5.37;;
17528;SDS011;8882;53.192;8.184;2023-05-07T11:52:19;8.83;;;5.33;;
17528;SDS011;8882;53.192;8.184;2023-05-07T11:54:53;8.10;;;5.60;;
17528;SDS011;8882;53.192;8.184;2023-05-07T11:57:23;6.50;;;4.87;;
17528;SDS011;8882;53.192;8.184;2023-05-07T11:59:56;6.97;;;5.40;;
17528;SDS011;8882;53.192;8.184;2023-05-07T12:02:22;7.00;;;5.30;;
17528;SDS011;8882;53.192;8.184;2023-05-07T12:04:49;7.33;;;5.50;;
17528;SDS011;8882;53.192;8.184;2023-05-07T12:07:18;6.00;;;5.33;;
17528;SDS011;8882;53.192;8.184;2023-05-07T12:09:44;6.37;;;5.33;;
17528;SDS011;8882;53.192;8.184;2023-05-07T12:12:10;6.40;;;4.90;;
17528;SDS011;8882;53.192;8.184;2023-05-07T12:14:37;5.77;;;5.00;;
17528;SDS011;8882;53.192;8.184;2023-05-07T12:17:07;6.77;;;5.40;;
17528;SDS011;8882;53.192;8.184;2023-05-07T12:19:33;7.10;;;5.30;;
17528;SDS011;8882;53.192;8.184;2023-05-07T12:22:00;6.47;;;4.83;;
17528;SDS011;8882;53.192;8.184;2023-05-07T12:24:27;7.73;;;5.83;;
17528;SDS011;8882;53.192;8.184;2023-05-07T12:26:53;7.57;;;5.37;;
17528;SDS011;8882;53.192;8.184;2023-05-07T12:29:22;9.00;;;6.00;;
17528;SDS011;8882;53.192;8.184;2023-05-07T12:31:48;7.37;;;5.30;;
17528;SDS011;8882;53.192;8.184;2023-05-07T12:34:15;7.77;;;5.33;;
17528;SDS011;8882;53.192;8.184;2023-05-07T12:36:40;6.87;;;5.57;;
17528;SDS011;8882;53.192;8.184;2023-05-07T12:39:06;8.23;;;5.43;;
17528;SDS011;8882;53.192;8.184;2023-05-07T12:41:53;9.47;;;5.77;;
17528;SDS011;8882;53.192;8.184;2023-05-07T12:44:21;7.27;;;5.47;;
17528;SDS011;8882;53.192;8.184;2023-05-07T12:46:48;7.33;;;5.63;;
17528;SDS011;8882;53.192;8.184;2023-05-07T12:49:14;7.13;;;5.10;;
17528;SDS011;8882;53.192;8.184;2023-05-07T12:51:40;7.77;;;5.77;;
17528;SDS011;8882;53.192;8.184;2023-05-07T12:54:06;6.87;;;5.50;;
17528;SDS011;8882;53.192;8.184;2023-05-07T12:56:31;9.37;;;5.27;;
17528;SDS011;8882;53.192;8.184;2023-05-07T12:59:00;8.77;;;5.53;;
17528;SDS011;8882;53.192;8.184;2023-05-07T13:01:29;8.70;;;5.80;;
17528;SDS011;8882;53.192;8.184;2023-05-07T13:04:00;7.23;;;5.50;;
17528;SDS011;8882;53.192;8.184;2023-05-07T13:06:27;8.63;;;5.87;;
17528;SDS011;8882;53.192;8.184;2023-05-07T13:08:53;8.83;;;5.83;;
17528;SDS011;8882;53.192;8.184;2023-05-07T13:11:18;5.77;;;5.07;;
17528;SDS011;8882;53.192;8.184;2023-05-07T13:13:44;6.40;;;5.33;;
17528;SDS011;8882;53.192;8.184;2023-05-07T13:16:10;7.10;;;5.17;;
17528;SDS011;8882;53.192;8.184;2023-05-07T13:18:37;6.03;;;5.07;;
17528;SDS011;8882;53.192;8.184;2023-05-07T13:21:04;7.20;;;5.53;;
17528;SDS011;8882;53.192;8.184;2023-05-07T13:23:29;8.53;;;5.43;;
17528;SDS011;8882;53.192;8.184;2023-05-07T13:25:55;6.43;;;5.37;;
17528;SDS011;8882;53.192;8.184;2023-05-07T13:28:21;8.63;;;5.40;;
17528;SDS011;8882;53.192;8.184;2023-05-07T13:30:48;6.37;;;5.23;;
17528;SDS011;8882;53.192;8.184;2023-05-07T13:33:13;7.47;;;5.00;;
17528;SDS011;8882;53.192;8.184;2023-05-07T13:35:40;6.13;;;4.53;;
17528;SDS011;8882;53.192;8.184;2023-05-07T13:38:05;6.23;;;4.87;;
17528;SDS011;8882;53.192;8.184;2023-05-07T13:40:31;5.87;;;4.77;;
17528;SDS011;8882;53.192;8.184;2023-05-07T13:42:57;6.60;;;4.60;;
17528;SDS011;8882;53.192;8.184;2023-05-07T13:45:24;6.67;;;5.30;;
17528;SDS011;8882;53.192;8.184;2023-05-07T13:47:50;7.50;;;4.83;;
17528;SDS011;8882;53.192;8.184;2023-05-07T13:50:17;6.87;;;4.93;;
17528;SDS011;8882;53.192;8.184;2023-05-07T13:52:42;5.80;;;4.83;;
17528;SDS011;8882;53.192;8.184;2023-05-07T13:55:15;6.57;;;4.13;;
17528;SDS011;8882;53.192;8.184;2023-05-07T13:57:41;4.80;;;4.20;;
17528;SDS011;8882;53.192;8.184;2023-05-07T14:00:07;7.30;;;4.33;;
17528;SDS011;8882;53.192;8.184;2023-05-07T14:02:33;6.40;;;4.00;;
17528;SDS011;8882;53.192;8.184;2023-05-07T14:04:58;6.53;;;4.90;;
17528;SDS011;8882;53.192;8.184;2023-05-07T14:07:24;4.87;;;3.87;;
17528;SDS011;8882;53.192;8.184;2023-05-07T14:09:50;7.83;;;4.87;;
17528;SDS011;8882;53.192;8.184;2023-05-07T14:12:15;6.13;;;4.57;;
17528;SDS011;8882;53.192;8.184;2023-05-07T14:14:41;5.57;;;4.20;;
17528;SDS011;8882;53.192;8.184;2023-05-07T14:17:06;5.77;;;4.23;;
17528;SDS011;8882;53.192;8.184;2023-05-07T14:19:33;5.13;;;4.10;;
17528;SDS011;8882;53.192;8.184;2023-05-07T14:21:58;5.83;;;4.87;;
17528;SDS011;8882;53.192;8.184;2023-05-07T14:24:24;6.93;;;4.83;;
17528;SDS011;8882;53.192;8.184;2023-05-07T14:26:50;5.07;;;4.53;;
17528;SDS011;8882;53.192;8.184;2023-05-07T14:29:15;4.50;;;3.90;;
17528;SDS011;8882;53.192;8.184;2023-05-07T14:31:43;5.00;;;4.27;;
17528;SDS011;8882;53.192;8.184;2023-05-07T14:34:10;4.73;;;3.83;;
17528;SDS011;8882;53.192;8.184;2023-05-07T14:36:35;5.27;;;3.90;;
17528;SDS011;8882;53.192;8.184;2023-05-07T14:39:01;6.70;;;3.80;;
17528;SDS011;8882;53.192;8.184;2023-05-07T14:41:27;6.03;;;4.00;;
17528;SDS011;8882;53.192;8.184;2023-05-07T14:43:52;4.80;;;4.00;;
17528;SDS011;8882;53.192;8.184;2023-05-07T14:46:18;5.60;;;3.90;;
17528;SDS011;8882;53.192;8.184;2023-05-07T14:48:44;5.53;;;4.00;;
17528;SDS011;8882;53.192;8.184;2023-05-07T14:51:11;4.63;;;3.83;;
17528;SDS011;8882;53.192;8.184;2023-05-07T14:53:36;5.27;;;4.40;;
17528;SDS011;8882;53.192;8.184;2023-05-07T14:56:02;4.37;;;3.40;;
17528;SDS011;8882;53.192;8.184;2023-05-07T14:58:28;4.43;;;3.37;;
17528;SDS011;8882;53.192;8.184;2023-05-07T15:00:54;4.80;;;4.00;;
17528;SDS011;8882;53.192;8.184;2023-05-07T15:03:19;4.43;;;3.87;;
17528;SDS011;8882;53.192;8.184;2023-05-07T15:05:45;3.90;;;3.40;;
17528;SDS011;8882;53.192;8.184;2023-05-07T15:08:10;3.97;;;3.37;;
17528;SDS011;8882;53.192;8.184;2023-05-07T15:10:36;4.37;;;3.50;;
17528;SDS011;8882;53.192;8.184;2023-05-07T15:13:06;4.10;;;3.70;;
17528;SDS011;8882;53.192;8.184;2023-05-07T15:15:32;4.23;;;3.83;;
17528;SDS011;8882;53.192;8.184;2023-05-07T15:17:58;4.03;;;3.20;;
17528;SDS011;8882;53.192;8.184;2023-05-07T15:20:25;4.03;;;3.63;;
17528;SDS011;8882;53.192;8.184;2023-05-07T15:22:51;5.10;;;4.00;;
17528;SDS011;8882;53.192;8.184;2023-05-07T15:25:16;4.93;;;4.10;;
17528;SDS011;8882;53.192;8.184;2023-05-07T15:27:42;4.20;;;3.80;;
17528;SDS011;8882;53.192;8.184;2023-05-07T15:30:07;3.90;;;3.50;;
17528;SDS011;8882;53.192;8.184;2023-05-07T15:32:35;4.97;;;3.70;;
17528;SDS011;8882;53.192;8.184;2023-05-07T15:35:01;3.90;;;3.50;;
17528;SDS011;8882;53.192;8.184;2023-05-07T15:37:27;4.80;;;3.93;;
17528;SDS011;8882;53.192;8.184;2023-05-07T15:39:52;3.90;;;3.50;;
17528;SDS011;8882;53.192;8.184;2023-05-07T15:42:18;4.17;;;3.77;;
17528;SDS011;8882;53.192;8.184;2023-05-07T15:44:43;4.80;;;4.20;;
17528;SDS011;8882;53.192;8.184;2023-05-07T15:47:09;6.97;;;4.33;;
17528;SDS011;8882;53.192;8.184;2023-05-07T15:49:35;4.80;;;4.03;;
17528;SDS011;8882;53.192;8.184;2023-05-07T15:52:00;4.47;;;4.07;;
17528;SDS011;8882;53.192;8.184;2023-05-07T15:54:26;4.23;;;3.80;;
17528;SDS011;8882;53.192;8.184;2023-05-07T15:56:51;4.30;;;3.90;;
17528;SDS011;8882;53.192;8.184;2023-05-07T15:59:17;5.43;;;3.97;;
17528;SDS011;8882;53.192;8.184;2023-05-07T16:01:42;6.87;;;4.00;;
17528;SDS011;8882;53.192;8.184;2023-05-07T16:04:09;10.50;;;4.40;;
17528;SDS011;8882;53.192;8.184;2023-05-07T16:06:34;4.53;;;4.07;;
17528;SDS011;8882;53.192;8.184;2023-05-07T16:09:00;4.93;;;4.03;;
17528;SDS011;8882;53.192;8.184;2023-05-07T16:11:26;5.17;;;4.13;;
17528;SDS011;8882;53.192;8.184;2023-05-07T16:13:54;5.47;;;4.57;;
17528;SDS011;8882;53.192;8.184;2023-05-07T16:16:20;5.47;;;3.60;;
17528;SDS011;8882;53.192;8.184;2023-05-07T16:18:45;5.53;;;3.83;;
17528;SDS011;8882;53.192;8.184;2023-05-07T16:21:11;5.30;;;4.77;;
17528;SDS011;8882;53.192;8.184;2023-05-07T16:23:36;6.10;;;4.40;;
17528;SDS011;8882;53.192;8.184;2023-05-07T16:26:02;7.70;;;4.77;;
17528;SDS011;8882;53.192;8.184;2023-05-07T16:28:29;6.37;;;4.57;;
17528;SDS011;8882;53.192;8.184;2023-05-07T16:30:55;4.93;;;4.50;;
17528;SDS011;8882;53.192;8.184;2023-05-07T16:33:20;5.27;;;4.77;;
17528;SDS011;8882;53.192;8.184;2023-05-07T16:35:55;5.57;;;4.50;;
17528;SDS011;8882;53.192;8.184;2023-05-07T16:38:20;4.73;;;4.20;;
17528;SDS011;8882;53.192;8.184;2023-05-07T16:40:46;3.90;;;3.50;;
17528;SDS011;8882;53.192;8.184;2023-05-07T16:43:11;5.13;;;4.20;;
17528;SDS011;8882;53.192;8.184;2023-05-07T16:45:37;6.80;;;4.50;;
17528;SDS011;8882;53.192;8.184;2023-05-07T16:48:02;4.70;;;4.00;;
17528;SDS011;8882;53.192;8.184;2023-05-07T16:50:29;5.50;;;4.23;;
17528;SDS011;8882;53.192;8.184;2023-05-07T16:52:54;5.30;;;4.03;;
17528;SDS011;8882;53.192;8.184;2023-05-07T16:55:20;5.33;;;4.40;;
17528;SDS011;8882;53.192;8.184;2023-05-07T16:57:45;4.77;;;3.97;;
17528;SDS011;8882;53.192;8.184;2023-05-07T17:00:11;5.87;;;4.37;;
17528;SDS011;8882;53.192;8.184;2023-05-07T17:02:37;6.93;;;5.20;;
17528;SDS011;8882;53.192;8.184;2023-05-07T17:05:02;4.10;;;3.50;;
17528;SDS011;8882;53.192;8.184;2023-05-07T17:07:30;4.60;;;4.17;;
17528;SDS011;8882;53.192;8.184;2023-05-07T17:09:55;5.30;;;4.20;;
17528;SDS011;8882;53.192;8.184;2023-05-07T17:12:21;6.40;;;4.17;;
17528;SDS011;8882;53.192;8.184;2023-05-07T17:14:47;5.23;;;4.03;;
17528;SDS011;8882;53.192;8.184;2023-05-07T17:17:12;4.70;;;4.13;;
17528;SDS011;8882;53.192;8.184;2023-05-07T17:19:38;4.63;;;4.03;;
17528;SDS011;8882;53.192;8.184;2023-05-07T17:22:03;4.63;;;4.10;;
17528;SDS011;8882;53.192;8.184;2023-05-07T17:24:29;7.57;;;3.90;;
17528;SDS011;8882;53.192;8.184;2023-05-07T17:26:54;4.60;;;3.90;;
17528;SDS011;8882;53.192;8.184;2023-05-07T17:29:20;4.37;;;3.97;;
17528;SDS011;8882;53.192;8.184;2023-05-07T17:31:45;4.47;;;3.93;;
17528;SDS011;8882;53.192;8.184;2023-05-07T17:34:11;3.80;;;3.40;;
17528;SDS011;8882;53.192;8.184;2023-05-07T17:36:37;5.17;;;4.00;;
17528;SDS011;8882;53.192;8.184;2023-05-07T17:39:03;4.60;;;3.57;;
17528;SDS011;8882;53.192;8.184;2023-05-07T17:41:28;4.67;;;3.70;;
17528;SDS011;8882;53.192;8.184;2023-05-07T17:43:54;5.37;;;4.37;;
17528;SDS011;8882;53.192;8.184;2023-05-07T17:46:19;4.50;;;3.83;;
17528;SDS011;8882;53.192;8.184;2023-05-07T17:48:45;4.30;;;3.90;;
17528;SDS011;8882;53.192;8.184;2023-05-07T17:51:10;4.97;;;3.53;;
17528;SDS011;8882;53.192;8.184;2023-05-07T17:53:36;4.67;;;3.97;;
17528;SDS011;8882;53.192;8.184;2023-05-07T17:56:01;5.53;;;4.17;;
17528;SDS011;8882;53.192;8.184;2023-05-07T17:58:27;5.00;;;3.70;;
17528;SDS011;8882;53.192;8.184;2023-05-07T18:00:53;4.10;;;3.30;;
17528;SDS011;8882;53.192;8.184;2023-05-07T18:03:19;5.67;;;3.40;;
17528;SDS011;8882;53.192;8.184;2023-05-07T18:05:45;5.80;;;3.93;;
17528;SDS011;8882;53.192;8.184;2023-05-07T18:08:10;4.73;;;3.53;;
17528;SDS011;8882;53.192;8.184;2023-05-07T18:10:36;4.13;;;3.10;;
17528;SDS011;8882;53.192;8.184;2023-05-07T18:13:02;4.07;;;3.37;;
17528;SDS011;8882;53.192;8.184;2023-05-07T18:15:27;5.40;;;3.70;;
17528;SDS011;8882;53.192;8.184;2023-05-07T18:17:53;4.00;;;3.57;;
17528;SDS011;8882;53.192;8.184;2023-05-07T18:20:18;4.70;;;3.53;;
17528;SDS011;8882;53.192;8.184;2023-05-07T18:22:44;3.50;;;3.20;;
17528;SDS011;8882;53.192;8.184;2023-05-07T18:25:10;3.90;;;3.50;;
17528;SDS011;8882;53.192;8.184;2023-05-07T18:27:35;3.87;;;3.30;;
17528;SDS011;8882;53.192;8.184;2023-05-07T18:30:01;3.60;;;3.23;;
17528;SDS011;8882;53.192;8.184;2023-05-07T18:32:27;3.87;;;3.30;;
17528;SDS011;8882;53.192;8.184;2023-05-07T18:34:52;2.73;;;2.53;;
17528;SDS011;8882;53.192;8.184;2023-05-07T18:37:18;4.10;;;3.23;;
17528;SDS011;8882;53.192;8.184;2023-05-07T18:39:44;7.27;;;3.33;;
17528;SDS011;8882;53.192;8.184;2023-05-07T18:42:10;3.37;;;3.07;;
17528;SDS011;8882;53.192;8.184;2023-05-07T18:44:37;4.37;;;3.40;;
17528;SDS011;8882;53.192;8.184;2023-05-07T18:47:03;4.13;;;3.63;;
17528;SDS011;8882;53.192;8.184;2023-05-07T18:49:29;4.30;;;2.73;;
17528;SDS011;8882;53.192;8.184;2023-05-07T18:51:55;3.43;;;3.10;;
17528;SDS011;8882;53.192;8.184;2023-05-07T18:54:21;3.37;;;2.87;;
17528;SDS011;8882;53.192;8.184;2023-05-07T18:56:47;3.87;;;3.47;;
17528;SDS011;8882;53.192;8.184;2023-05-07T18:59:13;3.63;;;3.30;;
17528;SDS011;8882;53.192;8.184;2023-05-07T19:01:38;3.33;;;2.90;;
17528;SDS011;8882;53.192;8.184;2023-05-07T19:04:04;4.63;;;3.10;;
17528;SDS011;8882;53.192;8.184;2023-05-07T19:06:29;3.73;;;3.33;;
17528;SDS011;8882;53.192;8.184;2023-05-07T19:08:55;4.00;;;3.60;;
17528;SDS011;8882;53.192;8.184;2023-05-07T19:11:21;3.90;;;3.50;;
17528;SDS011;8882;53.192;8.184;2023-05-07T19:13:47;5.05;;;4.03;;
17528;SDS011;8882;53.192;8.184;2023-05-07T19:16:13;3.77;;;3.43;;
17528;SDS011;8882;53.192;8.184;2023-05-07T19:18:38;4.00;;;3.27;;
17528;SDS011;8882;53.192;8.184;2023-05-07T19:21:05;4.13;;;3.67;;
17528;SDS011;8882;53.192;8.184;2023-05-07T19:23:32;5.03;;;3.63;;
17528;SDS011;8882;53.192;8.184;2023-05-07T19:25:58;4.57;;;3.27;;
17528;SDS011;8882;53.192;8.184;2023-05-07T19:28:24;4.00;;;3.60;;
17528;SDS011;8882;53.192;8.184;2023-05-07T19:30:50;4.03;;;3.53;;
17528;SDS011;8882;53.192;8.184;2023-05-07T19:33:16;4.47;;;3.60;;
17528;SDS011;8882;53.192;8.184;2023-05-07T19:35:42;5.60;;;3.70;;
17528;SDS011;8882;53.192;8.184;2023-05-07T19:38:09;3.87;;;3.47;;
17528;SDS011;8882;53.192;8.184;2023-05-07T19:40:34;6.33;;;3.47;;
17528;SDS011;8882;53.192;8.184;2023-05-07T19:43:00;3.67;;;3.17;;
17528;SDS011;8882;53.192;8.184;2023-05-07T19:45:26;3.87;;;2.97;;
17528;SDS011;8882;53.192;8.184;2023-05-07T19:47:51;4.63;;;3.90;;
17528;SDS011;8882;53.192;8.184;2023-05-07T19:50:17;3.47;;;3.17;;
17528;SDS011;8882;53.192;8.184;2023-05-07T19:52:42;4.30;;;3.40;;
17528;SDS011;8882;53.192;8.184;2023-05-07T19:55:08;4.03;;;3.03;;
17528;SDS011;8882;53.192;8.184;2023-05-07T19:57:34;4.77;;;3.83;;
17528;SDS011;8882;53.192;8.184;2023-05-07T19:59:59;3.87;;;3.37;;
17528;SDS011;8882;53.192;8.184;2023-05-07T20:02:25;4.40;;;3.37;;
17528;SDS011;8882;53.192;8.184;2023-05-07T20:04:51;4.73;;;3.37;;
17528;SDS011;8882;53.192;8.184;2023-05-07T20:07:16;3.93;;;3.40;;
17528;SDS011;8882;53.192;8.184;2023-05-07T20:09:42;3.70;;;3.20;;
17528;SDS011;8882;53.192;8.184;2023-05-07T20:12:08;4.13;;;3.20;;
17528;SDS011;8882;53.192;8.184;2023-05-07T20:14:33;5.93;;;3.87;;
17528;SDS011;8882;53.192;8.184;2023-05-07T20:16:59;5.07;;;4.03;;
17528;SDS011;8882;53.192;8.184;2023-05-07T20:19:24;3.60;;;3.23;;
17528;SDS011;8882;53.192;8.184;2023-05-07T20:21:50;5.60;;;3.87;;
17528;SDS011;8882;53.192;8.184;2023-05-07T20:24:16;4.33;;;3.37;;
17528;SDS011;8882;53.192;8.184;2023-05-07T20:26:43;5.57;;;3.90;;
17528;SDS011;8882;53.192;8.184;2023-05-07T20:29:09;4.70;;;4.10;;
17528;SDS011;8882;53.192;8.184;2023-05-07T20:31:35;3.93;;;3.53;;
17528;SDS011;8882;53.192;8.184;2023-05-07T20:34:00;4.33;;;3.77;;
17528;SDS011;8882;53.192;8.184;2023-05-07T20:36:26;3.80;;;3.47;;
17528;SDS011;8882;53.192;8.184;2023-05-07T20:38:52;4.03;;;3.30;;
17528;SDS011;8882;53.192;8.184;2023-05-07T20:41:18;4.10;;;3.70;;
17528;SDS011;8882;53.192;8.184;2023-05-07T20:43:45;4.50;;;3.40;;
17528;SDS011;8882;53.192;8.184;2023-05-07T20:46:10;5.17;;;4.00;;
17528;SDS011;8882;53.192;8.184;2023-05-07T20:48:36;4.00;;;3.53;;
17528;SDS011;8882;53.192;8.184;2023-05-07T20:51:02;3.37;;;3.07;;
17528;SDS011;8882;53.192;8.184;2023-05-07T20:53:28;5.27;;;3.30;;
17528;SDS011;8882;53.192;8.184;2023-05-07T20:55:54;5.03;;;3.63;;
17528;SDS011;8882;53.192;8.184;2023-05-07T20:58:20;3.87;;;3.53;;
